sensor_id;sensor_type;location;lat;lon;timestamp;P1;durP1;ratioP1;P2;durP2;ratioP2
19521;SDS011;9905;52.126;5.596;2023-05-14T00:00:10;13.25;;;10.38;;
19521;SDS011;9905;52.126;5.596;2023-05-14T00:02:37;11.40;;;9.85;;
19521;SDS011;9905;52.126;5.596;2023-05-14T00:05:04;11.10;;;9.93;;
19521;SDS011;9905;52.126;5.596;2023-05-14T00:07:33;13.40;;;9.80;;
19521;SDS011;9905;52.126;5.596;2023-05-14T00:10:00;10.88;;;9.88;;
19521;SDS011;9905;52.126;5.596;2023-05-14T00:12:26;11.02;;;9.88;;
19521;SDS011;9905;52.126;5.596;2023-05-14T00:14:54;11.30;;;10.35;;
19521;SDS011;9905;52.126;5.596;2023-05-14T00:17:21;10.23;;;9.23;;
19521;SDS011;9905;52.126;5.596;2023-05-14T00:19:48;11.10;;;9.98;;
19521;SDS011;9905;52.126;5.596;2023-05-14T00:22:15;11.98;;;10.77;;
19521;SDS011;9905;52.126;5.596;2023-05-14T00:24:43;14.02;;;10.90;;
19521;SDS011;9905;52.126;5.596;2023-05-14T00:27:10;11.38;;;10.55;;
19521;SDS011;9905;52.126;5.596;2023-05-14T00:29:36;14.00;;;10.85;;
19521;SDS011;9905;52.126;5.596;2023-05-14T00:32:03;13.73;;;10.43;;
19521;SDS011;9905;52.126;5.596;2023-05-14T00:34:31;11.45;;;10.30;;
19521;SDS011;9905;52.126;5.596;2023-05-14T00:36:57;11.65;;;10.50;;
19521;SDS011;9905;52.126;5.596;2023-05-14T00:39:24;11.30;;;10.27;;
19521;SDS011;9905;52.126;5.596;2023-05-14T00:41:52;11.10;;;10.00;;
19521;SDS011;9905;52.126;5.596;2023-05-14T00:44:19;12.63;;;10.85;;
19521;SDS011;9905;52.126;5.596;2023-05-14T00:46:45;13.65;;;10.38;;
19521;SDS011;9905;52.126;5.596;2023-05-14T00:49:12;17.08;;;10.82;;
19521;SDS011;9905;52.126;5.596;2023-05-14T00:51:40;13.07;;;10.32;;
19521;SDS011;9905;52.126;5.596;2023-05-14T00:54:10;11.90;;;10.40;;
19521;SDS011;9905;52.126;5.596;2023-05-14T00:56:38;11.93;;;10.75;;
19521;SDS011;9905;52.126;5.596;2023-05-14T00:59:06;10.82;;;9.93;;
19521;SDS011;9905;52.126;5.596;2023-05-14T01:01:33;14.90;;;10.50;;
19521;SDS011;9905;52.126;5.596;2023-05-14T01:04:00;11.63;;;10.45;;
19521;SDS011;9905;52.126;5.596;2023-05-14T01:06:28;13.35;;;10.70;;
19521;SDS011;9905;52.126;5.596;2023-05-14T01:09:12;13.82;;;10.73;;
19521;SDS011;9905;52.126;5.596;2023-05-14T01:11:47;12.10;;;9.77;;
19521;SDS011;9905;52.126;5.596;2023-05-14T01:14:23;14.13;;;10.68;;
19521;SDS011;9905;52.126;5.596;2023-05-14T01:16:58;12.65;;;10.10;;
19521;SDS011;9905;52.126;5.596;2023-05-14T01:19:28;11.63;;;10.52;;
19521;SDS011;9905;52.126;5.596;2023-05-14T01:22:06;12.82;;;11.40;;
19521;SDS011;9905;52.126;5.596;2023-05-14T01:24:33;12.45;;;11.15;;
19521;SDS011;9905;52.126;5.596;2023-05-14T01:27:00;12.10;;;10.90;;
19521;SDS011;9905;52.126;5.596;2023-05-14T01:29:32;12.45;;;11.20;;
19521;SDS011;9905;52.126;5.596;2023-05-14T01:32:02;15.40;;;10.73;;
19521;SDS011;9905;52.126;5.596;2023-05-14T01:34:32;11.80;;;10.60;;
19521;SDS011;9905;52.126;5.596;2023-05-14T01:37:01;11.65;;;10.27;;
19521;SDS011;9905;52.126;5.596;2023-05-14T01:39:30;16.92;;;10.98;;
19521;SDS011;9905;52.126;5.596;2023-05-14T01:41:58;13.20;;;10.23;;
19521;SDS011;9905;52.126;5.596;2023-05-14T01:44:26;14.68;;;10.43;;
19521;SDS011;9905;52.126;5.596;2023-05-14T01:46:53;11.82;;;10.73;;
19521;SDS011;9905;52.126;5.596;2023-05-14T01:49:19;11.30;;;10.18;;
19521;SDS011;9905;52.126;5.596;2023-05-14T01:51:46;12.07;;;10.90;;
19521;SDS011;9905;52.126;5.596;2023-05-14T01:54:13;11.23;;;10.27;;
19521;SDS011;9905;52.126;5.596;2023-05-14T01:56:41;12.45;;;10.05;;
19521;SDS011;9905;52.126;5.596;2023-05-14T01:59:08;11.63;;;9.95;;
19521;SDS011;9905;52.126;5.596;2023-05-14T02:01:34;11.82;;;10.43;;
19521;SDS011;9905;52.126;5.596;2023-05-14T02:04:01;11.25;;;10.10;;
19521;SDS011;9905;52.126;5.596;2023-05-14T02:06:28;10.27;;;9.23;;
19521;SDS011;9905;52.126;5.596;2023-05-14T02:08:55;14.52;;;10.65;;
19521;SDS011;9905;52.126;5.596;2023-05-14T02:11:22;11.45;;;10.13;;
19521;SDS011;9905;52.126;5.596;2023-05-14T02:13:50;12.07;;;10.35;;
19521;SDS011;9905;52.126;5.596;2023-05-14T02:16:17;16.15;;;11.23;;
19521;SDS011;9905;52.126;5.596;2023-05-14T02:18:44;11.82;;;10.50;;
19521;SDS011;9905;52.126;5.596;2023-05-14T02:21:10;11.93;;;10.75;;
19521;SDS011;9905;52.126;5.596;2023-05-14T02:23:37;11.15;;;10.13;;
19521;SDS011;9905;52.126;5.596;2023-05-14T02:26:04;12.98;;;10.15;;
19521;SDS011;9905;52.126;5.596;2023-05-14T02:28:32;11.93;;;10.48;;
19521;SDS011;9905;52.126;5.596;2023-05-14T02:31:00;12.13;;;11.00;;
19521;SDS011;9905;52.126;5.596;2023-05-14T02:33:27;12.07;;;10.90;;
19521;SDS011;9905;52.126;5.596;2023-05-14T02:35:54;11.40;;;10.27;;
19521;SDS011;9905;52.126;5.596;2023-05-14T02:38:21;15.57;;;10.77;;
19521;SDS011;9905;52.126;5.596;2023-05-14T02:40:48;12.88;;;10.57;;
19521;SDS011;9905;52.126;5.596;2023-05-14T02:43:14;11.27;;;10.35;;
19521;SDS011;9905;52.126;5.596;2023-05-14T02:45:41;13.00;;;11.15;;
19521;SDS011;9905;52.126;5.596;2023-05-14T02:48:09;11.88;;;10.77;;
19521;SDS011;9905;52.126;5.596;2023-05-14T02:50:36;12.55;;;10.30;;
19521;SDS011;9905;52.126;5.596;2023-05-14T02:53:03;11.80;;;10.60;;
19521;SDS011;9905;52.126;5.596;2023-05-14T02:55:29;13.13;;;11.00;;
19521;SDS011;9905;52.126;5.596;2023-05-14T02:57:56;11.60;;;10.50;;
19521;SDS011;9905;52.126;5.596;2023-05-14T03:00:23;12.00;;;10.88;;
19521;SDS011;9905;52.126;5.596;2023-05-14T03:02:49;11.85;;;10.65;;
19521;SDS011;9905;52.126;5.596;2023-05-14T03:05:17;11.57;;;10.27;;
19521;SDS011;9905;52.126;5.596;2023-05-14T03:07:44;12.10;;;10.90;;
19521;SDS011;9905;52.126;5.596;2023-05-14T03:10:11;13.32;;;11.18;;
19521;SDS011;9905;52.126;5.596;2023-05-14T03:12:38;12.60;;;11.35;;
19521;SDS011;9905;52.126;5.596;2023-05-14T03:15:06;13.85;;;11.20;;
19521;SDS011;9905;52.126;5.596;2023-05-14T03:17:33;15.13;;;11.13;;
19521;SDS011;9905;52.126;5.596;2023-05-14T03:20:00;13.82;;;11.48;;
19521;SDS011;9905;52.126;5.596;2023-05-14T03:22:28;13.38;;;11.27;;
19521;SDS011;9905;52.126;5.596;2023-05-14T03:24:55;12.93;;;11.35;;
19521;SDS011;9905;52.126;5.596;2023-05-14T03:27:22;13.35;;;11.07;;
19521;SDS011;9905;52.126;5.596;2023-05-14T03:29:48;13.35;;;11.18;;
19521;SDS011;9905;52.126;5.596;2023-05-14T03:32:16;13.13;;;11.80;;
19521;SDS011;9905;52.126;5.596;2023-05-14T03:34:43;12.55;;;11.25;;
19521;SDS011;9905;52.126;5.596;2023-05-14T03:37:09;12.68;;;11.43;;
19521;SDS011;9905;52.126;5.596;2023-05-14T03:39:37;14.02;;;12.23;;
19521;SDS011;9905;52.126;5.596;2023-05-14T03:42:04;12.77;;;11.50;;
19521;SDS011;9905;52.126;5.596;2023-05-14T03:44:31;16.17;;;11.93;;
19521;SDS011;9905;52.126;5.596;2023-05-14T03:46:58;14.38;;;11.63;;
19521;SDS011;9905;52.126;5.596;2023-05-14T03:49:24;14.10;;;11.82;;
19521;SDS011;9905;52.126;5.596;2023-05-14T03:51:51;15.10;;;10.65;;
19521;SDS011;9905;52.126;5.596;2023-05-14T03:54:18;15.52;;;12.02;;
19521;SDS011;9905;52.126;5.596;2023-05-14T03:56:46;14.52;;;11.32;;
19521;SDS011;9905;52.126;5.596;2023-05-14T03:59:13;12.68;;;11.43;;
19521;SDS011;9905;52.126;5.596;2023-05-14T04:01:39;12.98;;;11.30;;
19521;SDS011;9905;52.126;5.596;2023-05-14T04:04:06;12.13;;;10.75;;
19521;SDS011;9905;52.126;5.596;2023-05-14T04:06:33;15.98;;;12.07;;
19521;SDS011;9905;52.126;5.596;2023-05-14T04:09:00;12.55;;;11.18;;
19521;SDS011;9905;52.126;5.596;2023-05-14T04:11:27;15.40;;;12.00;;
19521;SDS011;9905;52.126;5.596;2023-05-14T04:13:55;14.23;;;11.40;;
19521;SDS011;9905;52.126;5.596;2023-05-14T04:16:22;13.63;;;11.70;;
19521;SDS011;9905;52.126;5.596;2023-05-14T04:18:48;14.27;;;12.38;;
19521;SDS011;9905;52.126;5.596;2023-05-14T04:21:15;13.90;;;11.93;;
19521;SDS011;9905;52.126;5.596;2023-05-14T04:23:42;15.80;;;12.32;;
19521;SDS011;9905;52.126;5.596;2023-05-14T04:26:08;15.43;;;11.75;;
19521;SDS011;9905;52.126;5.596;2023-05-14T04:28:35;14.68;;;12.15;;
19521;SDS011;9905;52.126;5.596;2023-05-14T04:31:03;13.57;;;12.18;;
19521;SDS011;9905;52.126;5.596;2023-05-14T04:33:30;13.35;;;11.70;;
19521;SDS011;9905;52.126;5.596;2023-05-14T04:35:57;17.27;;;11.80;;
19521;SDS011;9905;52.126;5.596;2023-05-14T04:38:23;17.13;;;11.85;;
19521;SDS011;9905;52.126;5.596;2023-05-14T04:40:50;19.48;;;12.45;;
19521;SDS011;9905;52.126;5.596;2023-05-14T04:43:17;14.13;;;11.73;;
19521;SDS011;9905;52.126;5.596;2023-05-14T04:45:44;15.75;;;12.50;;
19521;SDS011;9905;52.126;5.596;2023-05-14T04:48:12;16.80;;;11.93;;
19521;SDS011;9905;52.126;5.596;2023-05-14T04:50:38;13.73;;;11.55;;
19521;SDS011;9905;52.126;5.596;2023-05-14T04:53:05;12.25;;;11.05;;
19521;SDS011;9905;52.126;5.596;2023-05-14T04:55:32;19.02;;;12.48;;
19521;SDS011;9905;52.126;5.596;2023-05-14T04:57:59;12.43;;;11.18;;
19521;SDS011;9905;52.126;5.596;2023-05-14T05:00:26;11.70;;;10.55;;
19521;SDS011;9905;52.126;5.596;2023-05-14T05:02:53;12.93;;;11.55;;
19521;SDS011;9905;52.126;5.596;2023-05-14T05:05:21;12.23;;;10.98;;
19521;SDS011;9905;52.126;5.596;2023-05-14T05:07:48;16.58;;;12.38;;
19521;SDS011;9905;52.126;5.596;2023-05-14T05:10:15;16.55;;;11.65;;
19521;SDS011;9905;52.126;5.596;2023-05-14T05:12:42;14.88;;;12.15;;
19521;SDS011;9905;52.126;5.596;2023-05-14T05:15:09;14.25;;;11.43;;
19521;SDS011;9905;52.126;5.596;2023-05-14T05:17:36;14.85;;;11.23;;
19521;SDS011;9905;52.126;5.596;2023-05-14T05:20:03;16.25;;;11.85;;
19521;SDS011;9905;52.126;5.596;2023-05-14T05:22:33;12.52;;;11.27;;
19521;SDS011;9905;52.126;5.596;2023-05-14T05:25:00;12.20;;;10.98;;
19521;SDS011;9905;52.126;5.596;2023-05-14T05:27:29;12.30;;;11.05;;
19521;SDS011;9905;52.126;5.596;2023-05-14T05:29:56;12.40;;;11.20;;
19521;SDS011;9905;52.126;5.596;2023-05-14T05:32:22;15.98;;;11.05;;
19521;SDS011;9905;52.126;5.596;2023-05-14T05:34:49;13.43;;;11.52;;
19521;SDS011;9905;52.126;5.596;2023-05-14T05:37:16;11.18;;;10.07;;
19521;SDS011;9905;52.126;5.596;2023-05-14T05:39:44;13.57;;;11.00;;
19521;SDS011;9905;52.126;5.596;2023-05-14T05:42:12;10.77;;;9.85;;
19521;SDS011;9905;52.126;5.596;2023-05-14T05:44:39;11.60;;;10.45;;
19521;SDS011;9905;52.126;5.596;2023-05-14T05:47:06;14.70;;;11.38;;
19521;SDS011;9905;52.126;5.596;2023-05-14T05:49:32;11.48;;;10.20;;
19521;SDS011;9905;52.126;5.596;2023-05-14T05:52:01;14.15;;;10.48;;
19521;SDS011;9905;52.126;5.596;2023-05-14T05:54:28;11.38;;;10.38;;
19521;SDS011;9905;52.126;5.596;2023-05-14T05:56:58;13.98;;;9.63;;
19521;SDS011;9905;52.126;5.596;2023-05-14T05:59:24;10.50;;;9.40;;
19521;SDS011;9905;52.126;5.596;2023-05-14T06:01:51;11.90;;;10.77;;
19521;SDS011;9905;52.126;5.596;2023-05-14T06:04:18;11.57;;;10.38;;
19521;SDS011;9905;52.126;5.596;2023-05-14T06:06:45;13.63;;;10.30;;
19521;SDS011;9905;52.126;5.596;2023-05-14T06:09:12;12.02;;;10.88;;
19521;SDS011;9905;52.126;5.596;2023-05-14T06:11:38;10.82;;;9.80;;
19521;SDS011;9905;52.126;5.596;2023-05-14T06:14:06;11.18;;;10.02;;
19521;SDS011;9905;52.126;5.596;2023-05-14T06:16:33;12.07;;;10.73;;
19521;SDS011;9905;52.126;5.596;2023-05-14T06:19:00;11.80;;;10.07;;
19521;SDS011;9905;52.126;5.596;2023-05-14T06:21:27;11.10;;;10.20;;
19521;SDS011;9905;52.126;5.596;2023-05-14T06:23:53;11.15;;;10.15;;
19521;SDS011;9905;52.126;5.596;2023-05-14T06:26:20;10.55;;;9.57;;
19521;SDS011;9905;52.126;5.596;2023-05-14T06:28:47;12.20;;;10.35;;
19521;SDS011;9905;52.126;5.596;2023-05-14T06:31:16;11.02;;;9.88;;
19521;SDS011;9905;52.126;5.596;2023-05-14T06:33:43;10.85;;;9.88;;
19521;SDS011;9905;52.126;5.596;2023-05-14T06:36:10;10.88;;;9.95;;
19521;SDS011;9905;52.126;5.596;2023-05-14T06:38:36;10.57;;;8.48;;
19521;SDS011;9905;52.126;5.596;2023-05-14T06:41:03;11.52;;;9.68;;
19521;SDS011;9905;52.126;5.596;2023-05-14T06:43:30;11.68;;;9.75;;
19521;SDS011;9905;52.126;5.596;2023-05-14T06:45:57;12.68;;;9.70;;
19521;SDS011;9905;52.126;5.596;2023-05-14T06:48:25;11.25;;;9.95;;
19521;SDS011;9905;52.126;5.596;2023-05-14T06:50:53;10.23;;;9.40;;
19521;SDS011;9905;52.126;5.596;2023-05-14T06:53:20;11.45;;;10.20;;
19521;SDS011;9905;52.126;5.596;2023-05-14T06:55:47;11.07;;;9.52;;
19521;SDS011;9905;52.126;5.596;2023-05-14T06:58:14;10.38;;;9.57;;
19521;SDS011;9905;52.126;5.596;2023-05-14T07:00:41;10.85;;;9.80;;
19521;SDS011;9905;52.126;5.596;2023-05-14T07:03:07;13.02;;;10.77;;
19521;SDS011;9905;52.126;5.596;2023-05-14T07:05:35;15.27;;;10.45;;
19521;SDS011;9905;52.126;5.596;2023-05-14T07:08:04;9.95;;;9.15;;
19521;SDS011;9905;52.126;5.596;2023-05-14T07:10:31;10.55;;;9.40;;
19521;SDS011;9905;52.126;5.596;2023-05-14T07:12:58;10.52;;;9.57;;
19521;SDS011;9905;52.126;5.596;2023-05-14T07:15:24;10.93;;;8.85;;
19521;SDS011;9905;52.126;5.596;2023-05-14T07:17:51;10.90;;;9.80;;
19521;SDS011;9905;52.126;5.596;2023-05-14T07:20:18;10.13;;;9.07;;
19521;SDS011;9905;52.126;5.596;2023-05-14T07:22:46;10.95;;;9.73;;
19521;SDS011;9905;52.126;5.596;2023-05-14T07:25:13;10.38;;;9.48;;
19521;SDS011;9905;52.126;5.596;2023-05-14T07:27:39;10.20;;;9.25;;
19521;SDS011;9905;52.126;5.596;2023-05-14T07:30:07;9.35;;;8.55;;
19521;SDS011;9905;52.126;5.596;2023-05-14T07:32:34;13.57;;;9.77;;
19521;SDS011;9905;52.126;5.596;2023-05-14T07:35:01;10.23;;;9.23;;
19521;SDS011;9905;52.126;5.596;2023-05-14T07:37:27;10.73;;;9.63;;
19521;SDS011;9905;52.126;5.596;2023-05-14T07:39:56;9.52;;;8.70;;
19521;SDS011;9905;52.126;5.596;2023-05-14T07:42:22;9.98;;;8.95;;
19521;SDS011;9905;52.126;5.596;2023-05-14T07:44:49;9.70;;;8.80;;
19521;SDS011;9905;52.126;5.596;2023-05-14T07:47:16;10.38;;;8.85;;
19521;SDS011;9905;52.126;5.596;2023-05-14T07:49:43;9.70;;;8.80;;
19521;SDS011;9905;52.126;5.596;2023-05-14T07:52:10;10.38;;;9.35;;
19521;SDS011;9905;52.126;5.596;2023-05-14T07:54:36;9.60;;;8.70;;
19521;SDS011;9905;52.126;5.596;2023-05-14T07:57:05;9.90;;;8.98;;
19521;SDS011;9905;52.126;5.596;2023-05-14T07:59:31;9.18;;;7.97;;
19521;SDS011;9905;52.126;5.596;2023-05-14T08:01:58;8.80;;;8.00;;
19521;SDS011;9905;52.126;5.596;2023-05-14T08:04:25;8.80;;;7.95;;
19521;SDS011;9905;52.126;5.596;2023-05-14T08:06:51;9.38;;;8.60;;
19521;SDS011;9905;52.126;5.596;2023-05-14T08:09:19;9.25;;;8.13;;
19521;SDS011;9905;52.126;5.596;2023-05-14T08:11:46;10.32;;;7.82;;
19521;SDS011;9905;52.126;5.596;2023-05-14T08:14:14;7.53;;;7.00;;
19521;SDS011;9905;52.126;5.596;2023-05-14T08:16:40;8.70;;;8.02;;
19521;SDS011;9905;52.126;5.596;2023-05-14T08:19:07;10.13;;;8.55;;
19521;SDS011;9905;52.126;5.596;2023-05-14T08:21:34;9.68;;;8.70;;
19521;SDS011;9905;52.126;5.596;2023-05-14T08:24:00;9.55;;;8.80;;
19521;SDS011;9905;52.126;5.596;2023-05-14T08:26:27;8.93;;;8.32;;
19521;SDS011;9905;52.126;5.596;2023-05-14T08:28:54;8.85;;;8.10;;
19521;SDS011;9905;52.126;5.596;2023-05-14T08:31:22;11.20;;;8.45;;
19521;SDS011;9905;52.126;5.596;2023-05-14T08:33:49;8.68;;;7.65;;
19521;SDS011;9905;52.126;5.596;2023-05-14T08:36:15;8.45;;;7.68;;
19521;SDS011;9905;52.126;5.596;2023-05-14T08:38:42;8.30;;;7.55;;
19521;SDS011;9905;52.126;5.596;2023-05-14T08:41:09;8.55;;;7.70;;
19521;SDS011;9905;52.126;5.596;2023-05-14T08:43:48;8.38;;;7.72;;
19521;SDS011;9905;52.126;5.596;2023-05-14T08:46:22;8.20;;;7.60;;
19521;SDS011;9905;52.126;5.596;2023-05-14T08:48:52;8.75;;;8.15;;
19521;SDS011;9905;52.126;5.596;2023-05-14T08:51:26;8.50;;;7.80;;
19521;SDS011;9905;52.126;5.596;2023-05-14T08:53:53;8.52;;;7.38;;
19521;SDS011;9905;52.126;5.596;2023-05-14T08:56:20;9.88;;;7.25;;
19521;SDS011;9905;52.126;5.596;2023-05-14T08:58:48;7.43;;;6.45;;
19521;SDS011;9905;52.126;5.596;2023-05-14T09:01:15;7.90;;;7.10;;
19521;SDS011;9905;52.126;5.596;2023-05-14T09:03:45;8.02;;;7.10;;
19521;SDS011;9905;52.126;5.596;2023-05-14T09:06:13;8.40;;;6.80;;
19521;SDS011;9905;52.126;5.596;2023-05-14T09:08:40;7.22;;;6.65;;
19521;SDS011;9905;52.126;5.596;2023-05-14T09:11:07;6.93;;;6.32;;
19521;SDS011;9905;52.126;5.596;2023-05-14T09:13:35;8.15;;;7.28;;
19521;SDS011;9905;52.126;5.596;2023-05-14T09:16:03;6.53;;;6.03;;
19521;SDS011;9905;52.126;5.596;2023-05-14T09:18:30;7.35;;;6.75;;
19521;SDS011;9905;52.126;5.596;2023-05-14T09:20:58;8.93;;;7.22;;
19521;SDS011;9905;52.126;5.596;2023-05-14T09:23:28;7.60;;;6.63;;
19521;SDS011;9905;52.126;5.596;2023-05-14T09:25:57;6.78;;;6.28;;
19521;SDS011;9905;52.126;5.596;2023-05-14T09:28:24;6.65;;;6.03;;
19521;SDS011;9905;52.126;5.596;2023-05-14T09:30:52;7.28;;;6.38;;
19521;SDS011;9905;52.126;5.596;2023-05-14T09:33:24;5.95;;;5.38;;
19521;SDS011;9905;52.126;5.596;2023-05-14T09:35:53;6.60;;;6.07;;
19521;SDS011;9905;52.126;5.596;2023-05-14T09:38:27;7.00;;;6.38;;
19521;SDS011;9905;52.126;5.596;2023-05-14T09:40:55;6.55;;;5.95;;
19521;SDS011;9905;52.126;5.596;2023-05-14T09:43:21;6.57;;;5.85;;
19521;SDS011;9905;52.126;5.596;2023-05-14T09:45:48;7.65;;;6.90;;
19521;SDS011;9905;52.126;5.596;2023-05-14T09:48:15;6.82;;;6.25;;
19521;SDS011;9905;52.126;5.596;2023-05-14T09:50:42;6.28;;;5.85;;
19521;SDS011;9905;52.126;5.596;2023-05-14T09:53:09;6.00;;;5.50;;
19521;SDS011;9905;52.126;5.596;2023-05-14T09:55:37;6.30;;;5.30;;
19521;SDS011;9905;52.126;5.596;2023-05-14T09:58:05;6.18;;;5.78;;
19521;SDS011;9905;52.126;5.596;2023-05-14T10:00:32;6.90;;;6.28;;
19521;SDS011;9905;52.126;5.596;2023-05-14T10:03:01;10.63;;;7.80;;
19521;SDS011;9905;52.126;5.596;2023-05-14T10:05:31;6.78;;;6.25;;
19521;SDS011;9905;52.126;5.596;2023-05-14T10:08:00;6.03;;;5.60;;
19521;SDS011;9905;52.126;5.596;2023-05-14T10:10:31;6.78;;;6.00;;
19521;SDS011;9905;52.126;5.596;2023-05-14T10:13:02;7.95;;;6.32;;
19521;SDS011;9905;52.126;5.596;2023-05-14T10:15:33;6.75;;;6.30;;
19521;SDS011;9905;52.126;5.596;2023-05-14T10:18:06;6.20;;;5.70;;
19521;SDS011;9905;52.126;5.596;2023-05-14T10:20:35;7.18;;;5.90;;
19521;SDS011;9905;52.126;5.596;2023-05-14T10:23:05;6.38;;;5.40;;
19521;SDS011;9905;52.126;5.596;2023-05-14T10:25:32;6.05;;;5.57;;
19521;SDS011;9905;52.126;5.596;2023-05-14T10:28:01;8.45;;;6.50;;
19521;SDS011;9905;52.126;5.596;2023-05-14T10:30:30;6.22;;;5.72;;
19521;SDS011;9905;52.126;5.596;2023-05-14T10:33:04;7.90;;;5.95;;
19521;SDS011;9905;52.126;5.596;2023-05-14T10:35:39;7.20;;;6.60;;
19521;SDS011;9905;52.126;5.596;2023-05-14T10:38:17;5.68;;;5.18;;
19521;SDS011;9905;52.126;5.596;2023-05-14T10:40:47;7.28;;;6.40;;
19521;SDS011;9905;52.126;5.596;2023-05-14T10:43:16;6.63;;;6.05;;
19521;SDS011;9905;52.126;5.596;2023-05-14T10:45:44;5.72;;;5.22;;
19521;SDS011;9905;52.126;5.596;2023-05-14T10:48:11;5.57;;;5.28;;
19521;SDS011;9905;52.126;5.596;2023-05-14T10:50:37;6.28;;;5.68;;
19521;SDS011;9905;52.126;5.596;2023-05-14T10:53:04;6.70;;;6.10;;
19521;SDS011;9905;52.126;5.596;2023-05-14T10:55:36;5.90;;;5.50;;
19521;SDS011;9905;52.126;5.596;2023-05-14T10:58:03;6.00;;;5.47;;
19521;SDS011;9905;52.126;5.596;2023-05-14T11:00:33;6.13;;;5.38;;
19521;SDS011;9905;52.126;5.596;2023-05-14T11:03:02;5.85;;;5.32;;
19521;SDS011;9905;52.126;5.596;2023-05-14T11:05:29;5.68;;;5.28;;
19521;SDS011;9905;52.126;5.596;2023-05-14T11:07:57;5.30;;;4.90;;
19521;SDS011;9905;52.126;5.596;2023-05-14T11:10:25;4.88;;;4.57;;
19521;SDS011;9905;52.126;5.596;2023-05-14T11:12:54;4.50;;;4.20;;
19521;SDS011;9905;52.126;5.596;2023-05-14T11:15:23;11.80;;;5.10;;
19521;SDS011;9905;52.126;5.596;2023-05-14T11:17:53;4.82;;;4.47;;
19521;SDS011;9905;52.126;5.596;2023-05-14T11:20:20;4.38;;;4.07;;
19521;SDS011;9905;52.126;5.596;2023-05-14T11:22:47;4.28;;;3.97;;
19521;SDS011;9905;52.126;5.596;2023-05-14T11:25:15;5.28;;;4.25;;
19521;SDS011;9905;52.126;5.596;2023-05-14T11:27:43;4.22;;;4.03;;
19521;SDS011;9905;52.126;5.596;2023-05-14T11:30:11;4.55;;;4.15;;
19521;SDS011;9905;52.126;5.596;2023-05-14T11:32:39;4.53;;;4.22;;
19521;SDS011;9905;52.126;5.596;2023-05-14T11:35:08;6.85;;;4.50;;
19521;SDS011;9905;52.126;5.596;2023-05-14T11:37:35;4.38;;;4.00;;
19521;SDS011;9905;52.126;5.596;2023-05-14T11:40:05;5.50;;;4.82;;
19521;SDS011;9905;52.126;5.596;2023-05-14T11:42:33;4.78;;;4.40;;
19521;SDS011;9905;52.126;5.596;2023-05-14T11:45:02;6.60;;;3.95;;
19521;SDS011;9905;52.126;5.596;2023-05-14T11:47:29;4.25;;;3.85;;
19521;SDS011;9905;52.126;5.596;2023-05-14T11:49:56;3.78;;;3.42;;
19521;SDS011;9905;52.126;5.596;2023-05-14T11:52:26;4.18;;;3.78;;
19521;SDS011;9905;52.126;5.596;2023-05-14T11:54:52;4.63;;;4.32;;
19521;SDS011;9905;52.126;5.596;2023-05-14T11:57:19;6.00;;;4.03;;
19521;SDS011;9905;52.126;5.596;2023-05-14T11:59:47;4.35;;;4.10;;
19521;SDS011;9905;52.126;5.596;2023-05-14T12:02:19;5.18;;;3.70;;
19521;SDS011;9905;52.126;5.596;2023-05-14T12:04:48;6.32;;;4.55;;
19521;SDS011;9905;52.126;5.596;2023-05-14T12:07:16;6.63;;;4.10;;
19521;SDS011;9905;52.126;5.596;2023-05-14T12:09:44;6.13;;;4.38;;
19521;SDS011;9905;52.126;5.596;2023-05-14T12:12:13;6.03;;;3.90;;
19521;SDS011;9905;52.126;5.596;2023-05-14T12:14:41;5.13;;;3.80;;
19521;SDS011;9905;52.126;5.596;2023-05-14T12:17:13;4.10;;;3.70;;
19521;SDS011;9905;52.126;5.596;2023-05-14T12:19:41;6.68;;;3.88;;
19521;SDS011;9905;52.126;5.596;2023-05-14T12:22:09;4.72;;;4.32;;
19521;SDS011;9905;52.126;5.596;2023-05-14T12:24:36;5.18;;;4.03;;
19521;SDS011;9905;52.126;5.596;2023-05-14T12:27:05;4.90;;;4.40;;
19521;SDS011;9905;52.126;5.596;2023-05-14T12:29:34;5.78;;;4.40;;
19521;SDS011;9905;52.126;5.596;2023-05-14T12:32:06;4.05;;;3.78;;
19521;SDS011;9905;52.126;5.596;2023-05-14T12:34:34;4.75;;;4.13;;
19521;SDS011;9905;52.126;5.596;2023-05-14T12:37:01;6.40;;;4.18;;
19521;SDS011;9905;52.126;5.596;2023-05-14T12:39:29;4.65;;;3.67;;
19521;SDS011;9905;52.126;5.596;2023-05-14T12:41:57;5.30;;;4.25;;
19521;SDS011;9905;52.126;5.596;2023-05-14T12:44:25;3.78;;;3.58;;
19521;SDS011;9905;52.126;5.596;2023-05-14T12:46:52;4.03;;;3.72;;
19521;SDS011;9905;52.126;5.596;2023-05-14T12:49:19;4.78;;;4.10;;
19521;SDS011;9905;52.126;5.596;2023-05-14T12:51:46;4.70;;;4.28;;
19521;SDS011;9905;52.126;5.596;2023-05-14T12:54:12;4.63;;;4.22;;
19521;SDS011;9905;52.126;5.596;2023-05-14T12:56:40;4.57;;;4.18;;
19521;SDS011;9905;52.126;5.596;2023-05-14T12:59:06;5.80;;;4.55;;
19521;SDS011;9905;52.126;5.596;2023-05-14T13:01:36;4.15;;;3.78;;
19521;SDS011;9905;52.126;5.596;2023-05-14T13:04:03;4.60;;;4.20;;
19521;SDS011;9905;52.126;5.596;2023-05-14T13:06:30;4.10;;;3.70;;
19521;SDS011;9905;52.126;5.596;2023-05-14T13:08:57;4.05;;;3.70;;
19521;SDS011;9905;52.126;5.596;2023-05-14T13:11:26;4.63;;;4.13;;
19521;SDS011;9905;52.126;5.596;2023-05-14T13:13:55;4.03;;;3.78;;
19521;SDS011;9905;52.126;5.596;2023-05-14T13:16:22;4.18;;;3.78;;
19521;SDS011;9905;52.126;5.596;2023-05-14T13:18:51;4.60;;;4.00;;
19521;SDS011;9905;52.126;5.596;2023-05-14T13:21:17;4.60;;;4.20;;
19521;SDS011;9905;52.126;5.596;2023-05-14T13:23:44;4.72;;;3.90;;
19521;SDS011;9905;52.126;5.596;2023-05-14T13:26:11;4.50;;;4.10;;
19521;SDS011;9905;52.126;5.596;2023-05-14T13:28:38;4.55;;;4.13;;
19521;SDS011;9905;52.126;5.596;2023-05-14T13:31:05;3.92;;;3.53;;
19521;SDS011;9905;52.126;5.596;2023-05-14T13:33:34;5.15;;;3.67;;
19521;SDS011;9905;52.126;5.596;2023-05-14T13:36:04;5.63;;;3.92;;
19521;SDS011;9905;52.126;5.596;2023-05-14T13:38:31;4.22;;;3.83;;
19521;SDS011;9905;52.126;5.596;2023-05-14T13:40:58;4.07;;;3.58;;
19521;SDS011;9905;52.126;5.596;2023-05-14T13:43:26;4.88;;;3.22;;
19521;SDS011;9905;52.126;5.596;2023-05-14T13:45:54;3.60;;;3.30;;
19521;SDS011;9905;52.126;5.596;2023-05-14T13:48:21;3.50;;;3.20;;
19521;SDS011;9905;52.126;5.596;2023-05-14T13:50:48;4.47;;;3.88;;
19521;SDS011;9905;52.126;5.596;2023-05-14T13:53:17;3.50;;;3.22;;
19521;SDS011;9905;52.126;5.596;2023-05-14T13:55:44;3.78;;;3.17;;
19521;SDS011;9905;52.126;5.596;2023-05-14T13:58:11;3.60;;;3.30;;
19521;SDS011;9905;52.126;5.596;2023-05-14T14:00:37;4.15;;;3.75;;
19521;SDS011;9905;52.126;5.596;2023-05-14T14:03:05;4.10;;;3.80;;
19521;SDS011;9905;52.126;5.596;2023-05-14T14:05:32;4.45;;;4.07;;
19521;SDS011;9905;52.126;5.596;2023-05-14T14:07:59;4.05;;;3.75;;
19521;SDS011;9905;52.126;5.596;2023-05-14T14:10:28;5.95;;;3.50;;
19521;SDS011;9905;52.126;5.596;2023-05-14T14:12:54;4.05;;;3.75;;
19521;SDS011;9905;52.126;5.596;2023-05-14T14:15:21;3.95;;;3.42;;
19521;SDS011;9905;52.126;5.596;2023-05-14T14:17:48;3.67;;;3.20;;
19521;SDS011;9905;52.126;5.596;2023-05-14T14:20:15;4.40;;;3.50;;
19521;SDS011;9905;52.126;5.596;2023-05-14T14:22:42;5.85;;;3.60;;
19521;SDS011;9905;52.126;5.596;2023-05-14T14:25:09;4.78;;;3.25;;
19521;SDS011;9905;52.126;5.596;2023-05-14T14:27:38;3.58;;;3.28;;
19521;SDS011;9905;52.126;5.596;2023-05-14T14:30:05;4.97;;;4.28;;
19521;SDS011;9905;52.126;5.596;2023-05-14T14:32:33;4.57;;;3.92;;
19521;SDS011;9905;52.126;5.596;2023-05-14T14:35:00;4.30;;;3.95;;
19521;SDS011;9905;52.126;5.596;2023-05-14T14:37:27;4.38;;;4.07;;
19521;SDS011;9905;52.126;5.596;2023-05-14T14:39:53;4.50;;;4.07;;
19521;SDS011;9905;52.126;5.596;2023-05-14T14:42:20;3.97;;;3.65;;
19521;SDS011;9905;52.126;5.596;2023-05-14T14:44:48;4.32;;;3.55;;
19521;SDS011;9905;52.126;5.596;2023-05-14T14:47:15;6.93;;;3.75;;
19521;SDS011;9905;52.126;5.596;2023-05-14T14:49:41;5.82;;;4.60;;